sensor_id;sensor_type;location;lat;lon;timestamp;pressure;altitude;pressure_sealevel;temperature;humidity
46448;BME280;32145;50.390;30.778;2023-04-06T00:00:11;99362.50;;;7.91;81.20
46448;BME280;32145;50.390;30.778;2023-04-06T00:03:07;99357.97;;;7.91;81.46
46448;BME280;32145;50.390;30.778;2023-04-06T00:06:04;99356.53;;;7.89;81.20
46448;BME280;32145;50.390;30.778;2023-04-06T00:09:02;99353.00;;;7.88;81.88
46448;BME280;32145;50.390;30.778;2023-04-06T00:11:58;99359.69;;;7.85;81.66
46448;BME280;32145;50.390;30.778;2023-04-06T00:14:55;99358.84;;;7.85;81.50
46448;BME280;32145;50.390;30.778;2023-04-06T00:17:51;99365.09;;;7.85;81.76
46448;BME280;32145;50.390;30.778;2023-04-06T00:20:47;99355.34;;;7.84;81.79
46448;BME280;32145;50.390;30.778;2023-04-06T00:23:43;99352.28;;;7.81;81.56
46448;BME280;32145;50.390;30.778;2023-04-06T00:26:39;99349.81;;;7.79;82.23
46448;BME280;32145;50.390;30.778;2023-04-06T00:29:33;99354.63;;;7.77;81.61
46448;BME280;32145;50.390;30.778;2023-04-06T00:32:28;99352.13;;;7.76;81.71
46448;BME280;32145;50.390;30.778;2023-04-06T00:35:22;99354.00;;;7.75;81.87
46448;BME280;32145;50.390;30.778;2023-04-06T00:38:17;99349.09;;;7.72;82.63
46448;BME280;32145;50.390;30.778;2023-04-06T00:41:11;99344.72;;;7.71;82.43
46448;BME280;32145;50.390;30.778;2023-04-06T00:44:07;99344.13;;;7.69;82.56
46448;BME280;32145;50.390;30.778;2023-04-06T00:47:01;99339.81;;;7.68;82.96
46448;BME280;32145;50.390;30.778;2023-04-06T00:49:57;99343.31;;;7.68;83.17
46448;BME280;32145;50.390;30.778;2023-04-06T00:52:54;99337.09;;;7.68;83.51
46448;BME280;32145;50.390;30.778;2023-04-06T00:55:48;99340.59;;;7.68;83.72
46448;BME280;32145;50.390;30.778;2023-04-06T00:58:43;99331.72;;;7.68;83.65
46448;BME280;32145;50.390;30.778;2023-04-06T01:01:38;99333.78;;;7.66;82.96
46448;BME280;32145;50.390;30.778;2023-04-06T01:04:33;99341.44;;;7.69;83.38
46448;BME280;32145;50.390;30.778;2023-04-06T01:07:29;99338.75;;;7.69;83.55
46448;BME280;32145;50.390;30.778;2023-04-06T01:10:27;99328.78;;;7.69;83.25
46448;BME280;32145;50.390;30.778;2023-04-06T01:13:23;99332.28;;;7.70;84.04
46448;BME280;32145;50.390;30.778;2023-04-06T01:16:19;99334.97;;;7.70;83.81
46448;BME280;32145;50.390;30.778;2023-04-06T01:19:17;99334.75;;;7.71;83.83
46448;BME280;32145;50.390;30.778;2023-04-06T01:22:15;99329.59;;;7.70;83.32
46448;BME280;32145;50.390;30.778;2023-04-06T01:25:10;99330.41;;;7.70;83.69
46448;BME280;32145;50.390;30.778;2023-04-06T01:28:04;99327.94;;;7.69;83.62
46448;BME280;32145;50.390;30.778;2023-04-06T01:30:59;99327.94;;;7.69;83.17
46448;BME280;32145;50.390;30.778;2023-04-06T01:33:53;99333.34;;;7.69;83.21
46448;BME280;32145;50.390;30.778;2023-04-06T01:36:47;99338.75;;;7.69;83.15
46448;BME280;32145;50.390;30.778;2023-04-06T01:39:43;99324.41;;;7.68;83.69
46448;BME280;32145;50.390;30.778;2023-04-06T01:42:38;99319.41;;;7.72;83.88
46448;BME280;32145;50.390;30.778;2023-04-06T01:45:32;99326.66;;;7.71;84.16
46448;BME280;32145;50.390;30.778;2023-04-06T01:48:28;99317.72;;;7.71;83.70
46448;BME280;32145;50.390;30.778;2023-04-06T01:51:25;99325.03;;;7.70;83.89
46448;BME280;32145;50.390;30.778;2023-04-06T01:54:21;99325.81;;;7.71;83.69
46448;BME280;32145;50.390;30.778;2023-04-06T02:00:55;99316.09;;;7.70;83.75
46448;BME280;32145;50.390;30.778;2023-04-06T02:03:51;99311.75;;;7.69;83.82
46448;BME280;32145;50.390;30.778;2023-04-06T02:06:47;99309.06;;;7.69;84.03
46448;BME280;32145;50.390;30.778;2023-04-06T02:09:44;99299.31;;;7.68;83.75
46448;BME280;32145;50.390;30.778;2023-04-06T02:12:39;99299.09;;;7.69;84.16
46448;BME280;32145;50.390;30.778;2023-04-06T02:15:33;99292.88;;;7.69;83.91
46448;BME280;32145;50.390;30.778;2023-04-06T02:18:29;99294.50;;;7.70;83.84
46448;BME280;32145;50.390;30.778;2023-04-06T02:21:24;99289.13;;;7.70;84.08
46448;BME280;32145;50.390;30.778;2023-04-06T02:24:18;99288.88;;;7.71;83.69
46448;BME280;32145;50.390;30.778;2023-04-06T02:27:13;99287.59;;;7.74;83.81
46448;BME280;32145;50.390;30.778;2023-04-06T02:30:10;99289.25;;;7.75;83.97
46448;BME280;32145;50.390;30.778;2023-04-06T02:33:07;99296.53;;;7.74;84.09
46448;BME280;32145;50.390;30.778;2023-04-06T02:36:03;99299.22;;;7.74;84.01
46448;BME280;32145;50.390;30.778;2023-04-06T02:38:57;99299.47;;;7.73;84.07
46448;BME280;32145;50.390;30.778;2023-04-06T02:41:51;99305.44;;;7.75;83.62
46448;BME280;32145;50.390;30.778;2023-04-06T02:44:46;99300.28;;;7.73;82.52
46448;BME280;32145;50.390;30.778;2023-04-06T02:47:41;99292.78;;;7.76;83.10
46448;BME280;32145;50.390;30.778;2023-04-06T02:50:35;99285.50;;;7.76;83.57
46448;BME280;32145;50.390;30.778;2023-04-06T02:53:31;99289.63;;;7.79;83.39
46448;BME280;32145;50.390;30.778;2023-04-06T02:56:25;99287.75;;;7.79;83.42
46448;BME280;32145;50.390;30.778;2023-04-06T02:59:20;99282.59;;;7.78;83.29
46448;BME280;32145;50.390;30.778;2023-04-06T03:02:14;99283.41;;;7.78;83.73
46448;BME280;32145;50.390;30.778;2023-04-06T03:05:10;99284.22;;;7.79;84.01
46448;BME280;32145;50.390;30.778;2023-04-06T03:08:07;99288.78;;;7.78;83.86
46448;BME280;32145;50.390;30.778;2023-04-06T03:11:04;99295.84;;;7.79;83.53
46448;BME280;32145;50.390;30.778;2023-04-06T03:13:58;99296.88;;;7.78;83.79
46448;BME280;32145;50.390;30.778;2023-04-06T03:16:53;99288.78;;;7.78;83.38
46448;BME280;32145;50.390;30.778;2023-04-06T03:19:49;99292.09;;;7.80;83.59
46448;BME280;32145;50.390;30.778;2023-04-06T03:22:45;99295.84;;;7.79;83.88
46448;BME280;32145;50.390;30.778;2023-04-06T03:25:42;99299.13;;;7.81;83.23
46448;BME280;32145;50.390;30.778;2023-04-06T03:28:40;99297.84;;;7.84;83.66
46448;BME280;32145;50.390;30.778;2023-04-06T03:31:36;99295.16;;;7.84;83.47
46448;BME280;32145;50.390;30.778;2023-04-06T03:34:32;99297.84;;;7.84;83.96
46448;BME280;32145;50.390;30.778;2023-04-06T03:37:28;99289.97;;;7.82;83.56
46448;BME280;32145;50.390;30.778;2023-04-06T03:40:25;99292.66;;;7.82;83.60
46448;BME280;32145;50.390;30.778;2023-04-06T03:43:19;99296.22;;;7.83;83.55
46448;BME280;32145;50.390;30.778;2023-04-06T03:46:15;99306.16;;;7.82;83.22
46448;BME280;32145;50.390;30.778;2023-04-06T03:49:09;99306.16;;;7.82;83.39
46448;BME280;32145;50.390;30.778;2023-04-06T03:52:04;99295.38;;;7.82;83.39
46448;BME280;32145;50.390;30.778;2023-04-06T03:55:00;99301.84;;;7.81;83.26
46448;BME280;32145;50.390;30.778;2023-04-06T03:57:56;99307.84;;;7.83;83.64
46448;BME280;32145;50.390;30.778;2023-04-06T04:00:51;99307.84;;;7.83;83.88
46448;BME280;32145;50.390;30.778;2023-04-06T04:03:46;99311.72;;;7.88;83.63
46448;BME280;32145;50.390;30.778;2023-04-06T04:06:43;99312.91;;;7.92;83.65
46448;BME280;32145;50.390;30.778;2023-04-06T04:09:39;99310.22;;;7.92;83.53
46448;BME280;32145;50.390;30.778;2023-04-06T04:12:35;99320.53;;;7.95;83.40
46448;BME280;32145;50.390;30.778;2023-04-06T04:15:30;99314.91;;;7.96;83.05
46448;BME280;32145;50.390;30.778;2023-04-06T04:18:24;99310.34;;;7.97;83.46
46448;BME280;32145;50.390;30.778;2023-04-06T04:21:20;99303.88;;;7.98;83.43
46448;BME280;32145;50.390;30.778;2023-04-06T04:24:14;99313.03;;;7.97;83.27
46448;BME280;32145;50.390;30.778;2023-04-06T04:27:10;99320.53;;;7.95;83.08
46448;BME280;32145;50.390;30.778;2023-04-06T04:30:08;99311.97;;;7.98;83.05
46448;BME280;32145;50.390;30.778;2023-04-06T04:33:04;99315.28;;;8.00;83.31
46448;BME280;32145;50.390;30.778;2023-04-06T04:36:00;99327.72;;;8.01;82.90
46448;BME280;32145;50.390;30.778;2023-04-06T04:38:58;99326.66;;;8.02;82.85
46448;BME280;32145;50.390;30.778;2023-04-06T04:41:55;99322.31;;;8.01;82.50
46448;BME280;32145;50.390;30.778;2023-04-06T04:44:51;99329.97;;;8.04;82.76
46448;BME280;32145;50.390;30.778;2023-04-06T04:47:47;99344.88;;;8.07;82.44
46448;BME280;32145;50.390;30.778;2023-04-06T04:50:41;99338.63;;;8.06;81.89
46448;BME280;32145;50.390;30.778;2023-04-06T04:53:36;99335.03;;;8.12;82.23
46448;BME280;32145;50.390;30.778;2023-04-06T04:56:32;99331.88;;;8.16;82.34
46448;BME280;32145;50.390;30.778;2023-04-06T04:59:28;99326.59;;;8.21;82.13
46448;BME280;32145;50.390;30.778;2023-04-06T05:02:24;99335.88;;;8.25;81.97
46448;BME280;32145;50.390;30.778;2023-04-06T05:05:21;99338.13;;;8.28;82.28
46448;BME280;32145;50.390;30.778;2023-04-06T05:08:17;99333.91;;;8.32;82.15
46448;BME280;32145;50.390;30.778;2023-04-06T05:11:14;99340.72;;;8.35;82.47
46448;BME280;32145;50.390;30.778;2023-04-06T05:14:12;99339.88;;;8.34;81.69
46448;BME280;32145;50.390;30.778;2023-04-06T05:17:08;99335.06;;;8.36;81.47
46448;BME280;32145;50.390;30.778;2023-04-06T05:20:05;99336.13;;;8.35;81.17
46448;BME280;32145;50.390;30.778;2023-04-06T05:23:02;99338.97;;;8.41;81.47
46448;BME280;32145;50.390;30.778;2023-04-06T05:25:58;99338.50;;;8.44;81.35
46448;BME280;32145;50.390;30.778;2023-04-06T05:28:54;99343.44;;;8.47;81.47
46448;BME280;32145;50.390;30.778;2023-04-06T05:31:52;99332.97;;;8.50;81.11
46448;BME280;32145;50.390;30.778;2023-04-06T05:34:49;99345.00;;;8.55;81.15
46448;BME280;32145;50.390;30.778;2023-04-06T05:37:45;99337.00;;;8.60;80.86
46448;BME280;32145;50.390;30.778;2023-04-06T05:40:41;99329.84;;;8.66;80.99
46448;BME280;32145;50.390;30.778;2023-04-06T05:43:38;99338.44;;;8.74;80.54
46448;BME280;32145;50.390;30.778;2023-04-06T05:46:34;99338.31;;;8.81;80.02
46448;BME280;32145;50.390;30.778;2023-04-06T05:49:32;99336.91;;;8.91;80.62
46448;BME280;32145;50.390;30.778;2023-04-06T05:52:26;99334.66;;;8.99;79.73
46448;BME280;32145;50.390;30.778;2023-04-06T05:55:21;99335.72;;;9.10;79.53
46448;BME280;32145;50.390;30.778;2023-04-06T05:58:15;99344.63;;;9.23;79.33
46448;BME280;32145;50.390;30.778;2023-04-06T06:01:11;99344.03;;;9.33;79.25
46448;BME280;32145;50.390;30.778;2023-04-06T06:04:08;99336.00;;;9.38;78.80
46448;BME280;32145;50.390;30.778;2023-04-06T06:07:03;99337.19;;;9.42;77.89
46448;BME280;32145;50.390;30.778;2023-04-06T06:09:58;99334.56;;;9.47;77.20
46448;BME280;32145;50.390;30.778;2023-04-06T06:12:52;99338.19;;;9.53;76.92
46448;BME280;32145;50.390;30.778;2023-04-06T06:15:48;99345.94;;;9.61;77.79
46448;BME280;32145;50.390;30.778;2023-04-06T06:18:45;99332.53;;;9.66;76.66
46448;BME280;32145;50.390;30.778;2023-04-06T06:21:41;99343.06;;;9.80;76.76
46448;BME280;32145;50.390;30.778;2023-04-06T06:24:39;99344.91;;;9.91;75.76
46448;BME280;32145;50.390;30.778;2023-04-06T06:27:33;99346.06;;;9.96;75.04
46448;BME280;32145;50.390;30.778;2023-04-06T06:30:28;99342.13;;;10.03;74.86
46448;BME280;32145;50.390;30.778;2023-04-06T06:33:22;99347.88;;;10.07;74.83
46448;BME280;32145;50.390;30.778;2023-04-06T06:36:16;99347.97;;;10.12;74.78
46448;BME280;32145;50.390;30.778;2023-04-06T06:39:10;99351.50;;;10.13;74.86
46448;BME280;32145;50.390;30.778;2023-04-06T06:42:08;99347.41;;;10.10;74.34
46448;BME280;32145;50.390;30.778;2023-04-06T06:45:03;99343.94;;;10.15;74.82
46448;BME280;32145;50.390;30.778;2023-04-06T06:47:58;99355.88;;;10.31;74.31
46448;BME280;32145;50.390;30.778;2023-04-06T06:50:52;99367.97;;;10.40;75.39
46448;BME280;32145;50.390;30.778;2023-04-06T06:53:47;99350.56;;;10.36;73.17
46448;BME280;32145;50.390;30.778;2023-04-06T06:56:41;99349.41;;;10.32;72.95
46448;BME280;32145;50.390;30.778;2023-04-06T06:59:39;99347.75;;;10.31;73.20
46448;BME280;32145;50.390;30.778;2023-04-06T07:02:34;99346.13;;;10.30;73.45
46448;BME280;32145;50.390;30.778;2023-04-06T07:05:28;99350.72;;;10.29;74.71
46448;BME280;32145;50.390;30.778;2023-04-06T07:08:23;99347.69;;;10.26;74.99
46448;BME280;32145;50.390;30.778;2023-04-06T07:11:18;99352.81;;;10.27;74.13
46448;BME280;32145;50.390;30.778;2023-04-06T07:14:14;99356.81;;;10.37;74.47
46448;BME280;32145;50.390;30.778;2023-04-06T07:17:10;99363.63;;;10.39;73.81
46448;BME280;32145;50.390;30.778;2023-04-06T07:20:05;99357.81;;;10.48;74.20
46448;BME280;32145;50.390;30.778;2023-04-06T07:22:59;99353.22;;;10.48;73.93
46448;BME280;32145;50.390;30.778;2023-04-06T07:25:54;99352.97;;;10.50;74.48
46448;BME280;32145;50.390;30.778;2023-04-06T07:28:48;99354.88;;;10.49;73.90
46448;BME280;32145;50.390;30.778;2023-04-06T07:31:43;99361.13;;;10.50;73.64
46448;BME280;32145;50.390;30.778;2023-04-06T07:34:38;99359.44;;;10.49;74.18
46448;BME280;32145;50.390;30.778;2023-04-06T07:37:32;99357.94;;;10.41;72.95
46448;BME280;32145;50.390;30.778;2023-04-06T07:40:27;99370.44;;;10.42;73.32
46448;BME280;32145;50.390;30.778;2023-04-06T07:43:24;99373.25;;;10.47;74.08
46448;BME280;32145;50.390;30.778;2023-04-06T07:46:18;99367.69;;;10.54;73.83
46448;BME280;32145;50.390;30.778;2023-04-06T07:49:12;99364.09;;;10.65;73.47
46448;BME280;32145;50.390;30.778;2023-04-06T07:52:08;99369.16;;;10.79;74.08
46448;BME280;32145;50.390;30.778;2023-04-06T07:55:03;99371.94;;;10.84;71.32
46448;BME280;32145;50.390;30.778;2023-04-06T07:57:59;99371.63;;;10.98;71.85
46448;BME280;32145;50.390;30.778;2023-04-06T08:00:53;99375.69;;;11.17;72.77
46448;BME280;32145;50.390;30.778;2023-04-06T08:03:50;99377.44;;;11.29;72.59
46448;BME280;32145;50.390;30.778;2023-04-06T08:06:44;99381.56;;;11.31;72.45
46448;BME280;32145;50.390;30.778;2023-04-06T08:09:40;99383.94;;;11.28;72.17
46448;BME280;32145;50.390;30.778;2023-04-06T08:12:37;99394.09;;;11.15;70.78
46448;BME280;32145;50.390;30.778;2023-04-06T08:15:33;99395.06;;;11.09;71.77
46448;BME280;32145;50.390;30.778;2023-04-06T08:18:30;99384.41;;;11.02;71.36
46448;BME280;32145;50.390;30.778;2023-04-06T08:21:24;99386.88;;;11.04;71.31
46448;BME280;32145;50.390;30.778;2023-04-06T08:24:18;99393.13;;;11.04;72.60
46448;BME280;32145;50.390;30.778;2023-04-06T08:27:14;99388.50;;;11.05;71.12
46448;BME280;32145;50.390;30.778;2023-04-06T08:30:09;99386.84;;;11.21;72.55
46448;BME280;32145;50.390;30.778;2023-04-06T08:33:03;99383.22;;;11.32;72.02
46448;BME280;32145;50.390;30.778;2023-04-06T08:35:58;99377.03;;;11.37;70.90
46448;BME280;32145;50.390;30.778;2023-04-06T08:38:52;99374.31;;;11.37;69.60
46448;BME280;32145;50.390;30.778;2023-04-06T08:41:46;99372.88;;;11.52;71.30
46448;BME280;32145;50.390;30.778;2023-04-06T08:44:44;99371.78;;;11.53;71.53
46448;BME280;32145;50.390;30.778;2023-04-06T08:47:41;99378.78;;;11.48;72.29
46448;BME280;32145;50.390;30.778;2023-04-06T08:50:38;99380.56;;;11.38;72.28
46448;BME280;32145;50.390;30.778;2023-04-06T08:53:35;99386.16;;;11.31;73.26
46448;BME280;32145;50.390;30.778;2023-04-06T08:56:31;99389.63;;;11.26;73.47
46448;BME280;32145;50.390;30.778;2023-04-06T08:59:28;99383.88;;;11.23;73.96
46448;BME280;32145;50.390;30.778;2023-04-06T09:02:26;99376.81;;;11.21;74.52
46448;BME280;32145;50.390;30.778;2023-04-06T09:05:24;99380.59;;;11.20;74.49
46448;BME280;32145;50.390;30.778;2023-04-06T09:08:21;99391.97;;;11.17;74.69
46448;BME280;32145;50.390;30.778;2023-04-06T09:11:17;99387.84;;;11.15;74.50
46448;BME280;32145;50.390;30.778;2023-04-06T09:14:14;99382.09;;;11.11;74.72
46448;BME280;32145;50.390;30.778;2023-04-06T09:17:19;99388.84;;;11.08;75.74
46448;BME280;32145;50.390;30.778;2023-04-06T09:20:22;99394.22;;;11.03;76.09
46448;BME280;32145;50.390;30.778;2023-04-06T09:23:19;99403.00;;;10.93;75.81
46448;BME280;32145;50.390;30.778;2023-04-06T09:26:16;99414.25;;;10.85;76.70
46448;BME280;32145;50.390;30.778;2023-04-06T09:29:22;99413.38;;;10.79;77.93
46448;BME280;32145;50.390;30.778;2023-04-06T09:32:19;99415.31;;;10.67;77.64
46448;BME280;32145;50.390;30.778;2023-04-06T09:35:17;99415.47;;;10.60;78.74
46448;BME280;32145;50.390;30.778;2023-04-06T09:38:14;99409.72;;;10.56;79.07
46448;BME280;32145;50.390;30.778;2023-04-06T09:41:10;99420.75;;;10.50;78.75
46448;BME280;32145;50.390;30.778;2023-04-06T09:44:06;99427.09;;;10.43;79.35
46448;BME280;32145;50.390;30.778;2023-04-06T09:47:00;99428.41;;;10.41;80.18
46448;BME280;32145;50.390;30.778;2023-04-06T09:49:58;99434.06;;;10.39;80.11
46448;BME280;32145;50.390;30.778;2023-04-06T09:52:56;99430.75;;;10.37;80.33
46448;BME280;32145;50.390;30.778;2023-04-06T09:55:56;99438.41;;;10.40;80.83
46448;BME280;32145;50.390;30.778;2023-04-06T09:58:55;99435.13;;;10.38;80.33
46448;BME280;32145;50.390;30.778;2023-04-06T10:01:51;99441.88;;;10.36;80.26
46448;BME280;32145;50.390;30.778;2023-04-06T10:04:51;99450.47;;;10.32;79.91
46448;BME280;32145;50.390;30.778;2023-04-06T10:07:50;99439.88;;;10.31;81.14
46448;BME280;32145;50.390;30.778;2023-04-06T10:10:51;99444.13;;;10.27;81.28
46448;BME280;32145;50.390;30.778;2023-04-06T10:13:48;99447.91;;;10.26;82.00
46448;BME280;32145;50.390;30.778;2023-04-06T10:16:48;99455.22;;;10.25;81.42
46448;BME280;32145;50.390;30.778;2023-04-06T10:19:49;99456.53;;;10.23;81.44
46448;BME280;32145;50.390;30.778;2023-04-06T10:22:52;99451.66;;;10.25;82.24
46448;BME280;32145;50.390;30.778;2023-04-06T10:25:54;99458.25;;;10.29;81.57
46448;BME280;32145;50.390;30.778;2023-04-06T10:28:51;99463.53;;;10.36;81.55
46448;BME280;32145;50.390;30.778;2023-04-06T10:31:48;99467.66;;;10.38;82.28
46448;BME280;32145;50.390;30.778;2023-04-06T10:34:43;99464.34;;;10.36;82.30
46448;BME280;32145;50.390;30.778;2023-04-06T10:37:49;99469.44;;;10.32;82.95
46448;BME280;32145;50.390;30.778;2023-04-06T10:40:44;99462.88;;;10.28;81.83
46448;BME280;32145;50.390;30.778;2023-04-06T10:43:40;99470.75;;;10.30;82.07
46448;BME280;32145;50.390;30.778;2023-04-06T10:46:37;99473.19;;;10.31;82.15
46448;BME280;32145;50.390;30.778;2023-04-06T10:49:33;99475.53;;;10.40;82.98
46448;BME280;32145;50.390;30.778;2023-04-06T10:52:29;99481.41;;;10.49;82.29
46448;BME280;32145;50.390;30.778;2023-04-06T10:55:26;99481.16;;;10.50;82.37
46448;BME280;32145;50.390;30.778;2023-04-06T10:58:25;99483.63;;;10.52;82.86
46448;BME280;32145;50.390;30.778;2023-04-06T11:01:23;99478.13;;;10.47;81.82
46448;BME280;32145;50.390;30.778;2023-04-06T11:04:19;99489.66;;;10.42;81.16
46448;BME280;32145;50.390;30.778;2023-04-06T11:07:22;99488.97;;;10.47;82.28
46448;BME280;32145;50.390;30.778;2023-04-06T11:10:21;99487.91;;;10.48;81.19
46448;BME280;32145;50.390;30.778;2023-04-06T11:13:15;99497.53;;;10.55;81.05
46448;BME280;32145;50.390;30.778;2023-04-06T11:16:17;99493.69;;;10.68;81.74
46448;BME280;32145;50.390;30.778;2023-04-06T11:19:13;99498.94;;;10.75;81.56
46448;BME280;32145;50.390;30.778;2023-04-06T11:22:08;99495.59;;;10.85;81.21
46448;BME280;32145;50.390;30.778;2023-04-06T11:25:06;99504.50;;;10.98;81.74
46448;BME280;32145;50.390;30.778;2023-04-06T11:28:00;99498.31;;;11.02;81.52
46448;BME280;32145;50.390;30.778;2023-04-06T11:30:56;99502.44;;;11.05;81.16
46448;BME280;32145;50.390;30.778;2023-04-06T11:33:55;99504.41;;;11.09;79.94
46448;BME280;32145;50.390;30.778;2023-04-06T11:36:56;99507.06;;;11.21;79.71
46448;BME280;32145;50.390;30.778;2023-04-06T11:39:53;99508.28;;;11.31;79.81
46448;BME280;32145;50.390;30.778;2023-04-06T11:42:52;99512.97;;;11.36;79.43
46448;BME280;32145;50.390;30.778;2023-04-06T11:45:46;99504.84;;;11.36;79.12
46448;BME280;32145;50.390;30.778;2023-04-06T11:48:44;99507.88;;;11.39;79.34
46448;BME280;32145;50.390;30.778;2023-04-06T11:51:38;99506.06;;;11.45;79.87
46448;BME280;32145;50.390;30.778;2023-04-06T11:54:35;99509.06;;;11.48;79.88
46448;BME280;32145;50.390;30.778;2023-04-06T11:57:30;99510.75;;;11.50;79.12
46448;BME280;32145;50.390;30.778;2023-04-06T12:00:24;99501.69;;;11.61;79.18
46448;BME280;32145;50.390;30.778;2023-04-06T12:03:19;99502.56;;;11.67;77.57
46448;BME280;32145;50.390;30.778;2023-04-06T12:06:14;99513.69;;;11.65;76.74
46448;BME280;32145;50.390;30.778;2023-04-06T12:09:08;99503.06;;;11.64;76.56
46448;BME280;32145;50.390;30.778;2023-04-06T12:12:04;99504.88;;;11.75;77.94
46448;BME280;32145;50.390;30.778;2023-04-06T12:14:58;99508.97;;;11.78;75.95
46448;BME280;32145;50.390;30.778;2023-04-06T12:17:53;99507.63;;;11.80;77.39
46448;BME280;32145;50.390;30.778;2023-04-06T12:20:47;99508.28;;;11.88;77.65
46448;BME280;32145;50.390;30.778;2023-04-06T12:23:42;99501.91;;;11.77;76.23
46448;BME280;32145;50.390;30.778;2023-04-06T12:26:36;99496.88;;;11.68;75.06
46448;BME280;32145;50.390;30.778;2023-04-06T12:29:32;99494.38;;;11.84;76.35
46448;BME280;32145;50.390;30.778;2023-04-06T12:32:28;99506.25;;;12.00;75.67
46448;BME280;32145;50.390;30.778;2023-04-06T12:35:24;99504.94;;;12.03;74.71
46448;BME280;32145;50.390;30.778;2023-04-06T12:38:21;99507.41;;;12.04;74.88
46448;BME280;32145;50.390;30.778;2023-04-06T12:41:17;99506.94;;;12.07;75.59
46448;BME280;32145;50.390;30.778;2023-04-06T12:44:13;99499.88;;;11.89;73.90
46448;BME280;32145;50.390;30.778;2023-04-06T12:47:11;99512.81;;;11.82;74.82
46448;BME280;32145;50.390;30.778;2023-04-06T12:50:08;99505.66;;;11.76;75.13
46448;BME280;32145;50.390;30.778;2023-04-06T12:53:04;99506.81;;;11.80;76.62
46448;BME280;32145;50.390;30.778;2023-04-06T12:56:02;99503.03;;;11.81;76.92
46448;BME280;32145;50.390;30.778;2023-04-06T12:58:59;99508.06;;;11.72;76.63
46448;BME280;32145;50.390;30.778;2023-04-06T13:01:55;99508.41;;;11.58;75.81
46448;BME280;32145;50.390;30.778;2023-04-06T13:04:53;99509.66;;;11.51;76.67
46448;BME280;32145;50.390;30.778;2023-04-06T13:07:49;99519.31;;;11.41;76.69
46448;BME280;32145;50.390;30.778;2023-04-06T13:10:47;99515.34;;;11.32;78.13
46448;BME280;32145;50.390;30.778;2023-04-06T13:13:44;99517.41;;;11.25;78.07
46448;BME280;32145;50.390;30.778;2023-04-06T13:16:40;99526.47;;;11.13;78.29
46448;BME280;32145;50.390;30.778;2023-04-06T13:19:37;99522.00;;;11.07;79.73
46448;BME280;32145;50.390;30.778;2023-04-06T13:22:34;99525.44;;;11.02;79.52
46448;BME280;32145;50.390;30.778;2023-04-06T13:25:31;99520.19;;;10.95;79.82
46448;BME280;32145;50.390;30.778;2023-04-06T13:28:27;99520.66;;;10.92;80.02
46448;BME280;32145;50.390;30.778;2023-04-06T13:31:24;99519.28;;;10.90;79.66
46448;BME280;32145;50.390;30.778;2023-04-06T13:34:18;99517.63;;;10.89;80.13
46448;BME280;32145;50.390;30.778;2023-04-06T13:37:13;99515.25;;;10.92;81.04
46448;BME280;32145;50.390;30.778;2023-04-06T13:40:12;99524.53;;;10.96;79.76
46448;BME280;32145;50.390;30.778;2023-04-06T13:43:06;99521.34;;;11.00;80.24
46448;BME280;32145;50.390;30.778;2023-04-06T13:46:00;99515.91;;;11.00;80.04
46448;BME280;32145;50.390;30.778;2023-04-06T13:48:54;99521.34;;;11.00;80.22
46448;BME280;32145;50.390;30.778;2023-04-06T13:51:49;99514.44;;;11.09;80.89
46448;BME280;32145;50.390;30.778;2023-04-06T13:54:43;99523.59;;;11.20;80.68
46448;BME280;32145;50.390;30.778;2023-04-06T13:57:39;99525.16;;;11.33;80.58
46448;BME280;32145;50.390;30.778;2023-04-06T14:00:33;99526.31;;;11.37;80.11
46448;BME280;32145;50.390;30.778;2023-04-06T14:03:27;99523.59;;;11.37;79.95
46448;BME280;32145;50.390;30.778;2023-04-06T14:06:21;99516.59;;;11.41;80.05
46448;BME280;32145;50.390;30.778;2023-04-06T14:09:18;99532.88;;;11.41;80.34
46448;BME280;32145;50.390;30.778;2023-04-06T14:12:14;99522.50;;;11.38;79.88
46448;BME280;32145;50.390;30.778;2023-04-06T14:15:12;99528.50;;;11.40;79.96
46448;BME280;32145;50.390;30.778;2023-04-06T14:18:08;99514.44;;;11.43;80.11
46448;BME280;32145;50.390;30.778;2023-04-06T14:21:05;99522.59;;;11.43;79.78
46448;BME280;32145;50.390;30.778;2023-04-06T14:24:01;99522.66;;;11.48;80.24
46448;BME280;32145;50.390;30.778;2023-04-06T14:26:58;99519.13;;;11.48;79.06
46448;BME280;32145;50.390;30.778;2023-04-06T14:29:55;99522.16;;;11.52;80.03
46448;BME280;32145;50.390;30.778;2023-04-06T14:32:52;99519.53;;;11.57;79.91
46448;BME280;32145;50.390;30.778;2023-04-06T14:35:49;99519.28;;;11.58;79.50
46448;BME280;32145;50.390;30.778;2023-04-06T14:38:45;99521.25;;;11.63;79.71
46448;BME280;32145;50.390;30.778;2023-04-06T14:41:41;99528.91;;;11.66;80.22
46448;BME280;32145;50.390;30.778;2023-04-06T14:44:38;99523.66;;;11.59;78.04
46448;BME280;32145;50.390;30.778;2023-04-06T14:47:34;99526.59;;;11.58;78.49
46448;BME280;32145;50.390;30.778;2023-04-06T14:50:32;99526.91;;;11.62;78.82
46448;BME280;32145;50.390;30.778;2023-04-06T14:53:28;99528.72;;;11.56;77.10
46448;BME280;32145;50.390;30.778;2023-04-06T14:56:24;99521.19;;;11.58;78.62
46448;BME280;32145;50.390;30.778;2023-04-06T14:59:19;99528.25;;;11.59;78.52
46448;BME280;32145;50.390;30.778;2023-04-06T15:02:13;99527.16;;;11.60;78.76
46448;BME280;32145;50.390;30.778;2023-04-06T15:05:08;99528.09;;;11.48;77.16
46448;BME280;32145;50.390;30.778;2023-04-06T15:08:04;99531.31;;;11.45;77.33
46448;BME280;32145;50.390;30.778;2023-04-06T15:11:00;99530.72;;;11.43;78.08
46448;BME280;32145;50.390;30.778;2023-04-06T15:13:57;99525.28;;;11.43;78.23
46448;BME280;32145;50.390;30.778;2023-04-06T15:16:53;99532.38;;;11.44;78.15
46448;BME280;32145;50.390;30.778;2023-04-06T15:19:50;99534.75;;;11.41;78.29
46448;BME280;32145;50.390;30.778;2023-04-06T15:22:46;99540.91;;;11.36;77.88
46448;BME280;32145;50.390;30.778;2023-04-06T15:25:44;99539.28;;;11.35;79.16
46448;BME280;32145;50.390;30.778;2023-04-06T15:28:40;99537.06;;;11.32;78.28